sensor_id;sensor_type;location;lat;lon;timestamp;P1;durP1;ratioP1;P2;durP2;ratioP2
16640;SDS011;8434;47.990;7.880;2022-09-03T00:00:09;2.77;;;2.00;;
16640;SDS011;8434;47.990;7.880;2022-09-03T00:02:57;2.40;;;2.03;;
16640;SDS011;8434;47.990;7.880;2022-09-03T00:05:44;2.87;;;2.53;;
16640;SDS011;8434;47.990;7.880;2022-09-03T00:08:32;2.50;;;1.70;;
16640;SDS011;8434;47.990;7.880;2022-09-03T00:11:19;4.97;;;2.20;;
16640;SDS011;8434;47.990;7.880;2022-09-03T00:14:08;4.33;;;1.90;;
16640;SDS011;8434;47.990;7.880;2022-09-03T00:16:55;2.37;;;2.07;;
16640;SDS011;8434;47.990;7.880;2022-09-03T00:19:43;3.30;;;1.70;;
16640;SDS011;8434;47.990;7.880;2022-09-03T00:22:30;3.53;;;1.80;;
16640;SDS011;8434;47.990;7.880;2022-09-03T00:25:17;2.17;;;1.93;;
16640;SDS011;8434;47.990;7.880;2022-09-03T00:28:05;3.33;;;2.57;;
16640;SDS011;8434;47.990;7.880;2022-09-03T00:30:55;5.27;;;2.50;;
16640;SDS011;8434;47.990;7.880;2022-09-03T00:33:44;2.40;;;1.80;;
16640;SDS011;8434;47.990;7.880;2022-09-03T00:36:32;4.70;;;2.10;;
16640;SDS011;8434;47.990;7.880;2022-09-03T00:39:18;2.70;;;2.07;;
16640;SDS011;8434;47.990;7.880;2022-09-03T00:42:08;2.50;;;2.07;;
16640;SDS011;8434;47.990;7.880;2022-09-03T00:45:02;4.60;;;1.80;;
16640;SDS011;8434;47.990;7.880;2022-09-03T00:47:54;2.37;;;2.17;;
16640;SDS011;8434;47.990;7.880;2022-09-03T00:50:44;3.20;;;2.57;;
16640;SDS011;8434;47.990;7.880;2022-09-03T00:53:32;2.50;;;2.13;;
16640;SDS011;8434;47.990;7.880;2022-09-03T00:56:20;3.20;;;2.23;;
16640;SDS011;8434;47.990;7.880;2022-09-03T00:59:11;2.47;;;2.10;;
16640;SDS011;8434;47.990;7.880;2022-09-03T01:02:01;2.40;;;2.20;;
16640;SDS011;8434;47.990;7.880;2022-09-03T01:04:53;2.70;;;2.13;;
16640;SDS011;8434;47.990;7.880;2022-09-03T01:07:43;3.40;;;2.10;;
16640;SDS011;8434;47.990;7.880;2022-09-03T01:10:32;2.70;;;2.20;;
16640;SDS011;8434;47.990;7.880;2022-09-03T01:13:20;4.67;;;2.30;;
16640;SDS011;8434;47.990;7.880;2022-09-03T01:16:08;3.77;;;2.40;;
16640;SDS011;8434;47.990;7.880;2022-09-03T01:18:59;4.80;;;2.20;;
16640;SDS011;8434;47.990;7.880;2022-09-03T01:21:53;3.40;;;2.30;;
16640;SDS011;8434;47.990;7.880;2022-09-03T01:24:51;3.03;;;2.77;;
16640;SDS011;8434;47.990;7.880;2022-09-03T01:27:45;3.87;;;2.40;;
16640;SDS011;8434;47.990;7.880;2022-09-03T01:30:35;3.53;;;2.40;;
16640;SDS011;8434;47.990;7.880;2022-09-03T01:33:23;3.47;;;2.30;;
16640;SDS011;8434;47.990;7.880;2022-09-03T01:36:13;3.43;;;2.27;;
16640;SDS011;8434;47.990;7.880;2022-09-03T01:39:01;4.83;;;2.40;;
16640;SDS011;8434;47.990;7.880;2022-09-03T01:41:47;2.50;;;2.30;;
16640;SDS011;8434;47.990;7.880;2022-09-03T01:45:16;4.43;;;2.20;;
16640;SDS011;8434;47.990;7.880;2022-09-03T01:48:09;3.70;;;2.40;;
16640;SDS011;8434;47.990;7.880;2022-09-03T01:51:00;3.93;;;2.50;;
16640;SDS011;8434;47.990;7.880;2022-09-03T01:53:55;4.50;;;2.60;;
16640;SDS011;8434;47.990;7.880;2022-09-03T01:56:49;3.03;;;2.53;;
16640;SDS011;8434;47.990;7.880;2022-09-03T01:59:42;3.80;;;2.60;;
16640;SDS011;8434;47.990;7.880;2022-09-03T02:02:29;3.80;;;2.50;;
16640;SDS011;8434;47.990;7.880;2022-09-03T02:05:17;2.50;;;2.30;;
16640;SDS011;8434;47.990;7.880;2022-09-03T02:08:06;4.20;;;2.40;;
16640;SDS011;8434;47.990;7.880;2022-09-03T02:10:52;4.87;;;2.80;;
16640;SDS011;8434;47.990;7.880;2022-09-03T02:13:40;3.40;;;2.60;;
16640;SDS011;8434;47.990;7.880;2022-09-03T02:16:26;2.70;;;2.50;;
16640;SDS011;8434;47.990;7.880;2022-09-03T02:19:14;3.30;;;2.73;;
16640;SDS011;8434;47.990;7.880;2022-09-03T02:22:01;3.07;;;2.33;;
16640;SDS011;8434;47.990;7.880;2022-09-03T02:24:47;3.70;;;2.80;;
16640;SDS011;8434;47.990;7.880;2022-09-03T02:27:33;4.20;;;3.00;;
16640;SDS011;8434;47.990;7.880;2022-09-03T02:30:18;3.40;;;2.97;;
16640;SDS011;8434;47.990;7.880;2022-09-03T02:33:03;3.30;;;3.00;;
16640;SDS011;8434;47.990;7.880;2022-09-03T02:35:48;3.07;;;2.77;;
16640;SDS011;8434;47.990;7.880;2022-09-03T02:38:34;3.30;;;2.77;;
16640;SDS011;8434;47.990;7.880;2022-09-03T02:41:19;3.97;;;2.80;;
16640;SDS011;8434;47.990;7.880;2022-09-03T02:44:07;3.23;;;2.87;;
16640;SDS011;8434;47.990;7.880;2022-09-03T02:46:54;5.13;;;3.60;;
16640;SDS011;8434;47.990;7.880;2022-09-03T02:49:40;3.27;;;2.73;;
16640;SDS011;8434;47.990;7.880;2022-09-03T02:52:26;3.40;;;3.10;;
16640;SDS011;8434;47.990;7.880;2022-09-03T02:55:12;4.07;;;3.60;;
16640;SDS011;8434;47.990;7.880;2022-09-03T02:58:02;3.23;;;2.93;;
16640;SDS011;8434;47.990;7.880;2022-09-03T03:00:48;3.70;;;2.90;;
16640;SDS011;8434;47.990;7.880;2022-09-03T03:03:33;3.50;;;3.20;;
16640;SDS011;8434;47.990;7.880;2022-09-03T03:06:18;5.67;;;3.30;;
16640;SDS011;8434;47.990;7.880;2022-09-03T03:09:03;9.00;;;3.53;;
16640;SDS011;8434;47.990;7.880;2022-09-03T03:11:51;3.93;;;3.13;;
16640;SDS011;8434;47.990;7.880;2022-09-03T03:14:38;3.73;;;3.43;;
16640;SDS011;8434;47.990;7.880;2022-09-03T03:17:23;3.53;;;3.23;;
16640;SDS011;8434;47.990;7.880;2022-09-03T03:20:09;5.13;;;3.10;;
16640;SDS011;8434;47.990;7.880;2022-09-03T03:22:54;3.33;;;3.03;;
16640;SDS011;8434;47.990;7.880;2022-09-03T03:25:39;3.70;;;3.40;;
16640;SDS011;8434;47.990;7.880;2022-09-03T03:28:25;3.23;;;2.93;;
16640;SDS011;8434;47.990;7.880;2022-09-03T03:31:10;7.60;;;3.50;;
16640;SDS011;8434;47.990;7.880;2022-09-03T03:33:56;3.90;;;3.47;;
16640;SDS011;8434;47.990;7.880;2022-09-03T03:36:42;5.87;;;3.50;;
16640;SDS011;8434;47.990;7.880;2022-09-03T03:39:26;4.77;;;3.30;;
16640;SDS011;8434;47.990;7.880;2022-09-03T03:42:11;4.67;;;3.57;;
16640;SDS011;8434;47.990;7.880;2022-09-03T03:44:58;3.90;;;3.40;;
16640;SDS011;8434;47.990;7.880;2022-09-03T03:47:45;4.23;;;3.77;;
16640;SDS011;8434;47.990;7.880;2022-09-03T03:50:29;6.00;;;3.63;;
16640;SDS011;8434;47.990;7.880;2022-09-03T03:53:14;4.53;;;4.00;;
16640;SDS011;8434;47.990;7.880;2022-09-03T03:56:00;3.63;;;3.33;;
16640;SDS011;8434;47.990;7.880;2022-09-03T03:58:45;5.57;;;3.93;;
16640;SDS011;8434;47.990;7.880;2022-09-03T04:01:32;4.23;;;3.83;;
16640;SDS011;8434;47.990;7.880;2022-09-03T04:04:17;4.97;;;4.47;;
16640;SDS011;8434;47.990;7.880;2022-09-03T04:07:02;4.20;;;3.80;;
16640;SDS011;8434;47.990;7.880;2022-09-03T04:09:47;6.97;;;3.87;;
16640;SDS011;8434;47.990;7.880;2022-09-03T04:12:32;4.37;;;3.97;;
16640;SDS011;8434;47.990;7.880;2022-09-03T04:15:17;4.63;;;4.17;;
16640;SDS011;8434;47.990;7.880;2022-09-03T04:18:03;5.43;;;3.90;;
16640;SDS011;8434;47.990;7.880;2022-09-03T04:20:49;7.00;;;4.23;;
16640;SDS011;8434;47.990;7.880;2022-09-03T04:23:35;3.93;;;3.63;;
16640;SDS011;8434;47.990;7.880;2022-09-03T04:26:21;4.03;;;3.50;;
16640;SDS011;8434;47.990;7.880;2022-09-03T04:29:07;3.80;;;3.40;;
16640;SDS011;8434;47.990;7.880;2022-09-03T04:31:52;4.43;;;3.60;;
16640;SDS011;8434;47.990;7.880;2022-09-03T04:34:56;4.20;;;3.70;;
16640;SDS011;8434;47.990;7.880;2022-09-03T04:37:41;4.10;;;3.70;;
16640;SDS011;8434;47.990;7.880;2022-09-03T04:40:26;4.80;;;3.13;;
16640;SDS011;8434;47.990;7.880;2022-09-03T04:43:11;4.10;;;3.70;;
16640;SDS011;8434;47.990;7.880;2022-09-03T04:45:56;3.83;;;3.37;;
16640;SDS011;8434;47.990;7.880;2022-09-03T04:48:42;4.17;;;3.43;;
16640;SDS011;8434;47.990;7.880;2022-09-03T04:51:28;4.00;;;3.60;;
16640;SDS011;8434;47.990;7.880;2022-09-03T04:54:14;3.33;;;3.03;;
16640;SDS011;8434;47.990;7.880;2022-09-03T04:56:59;3.87;;;3.27;;
16640;SDS011;8434;47.990;7.880;2022-09-03T04:59:44;5.40;;;3.17;;
16640;SDS011;8434;47.990;7.880;2022-09-03T05:02:30;4.10;;;3.70;;
16640;SDS011;8434;47.990;7.880;2022-09-03T05:05:15;3.70;;;3.40;;
16640;SDS011;8434;47.990;7.880;2022-09-03T05:08:02;3.80;;;3.50;;
16640;SDS011;8434;47.990;7.880;2022-09-03T05:10:47;8.20;;;3.97;;
16640;SDS011;8434;47.990;7.880;2022-09-03T05:13:33;3.53;;;3.20;;
16640;SDS011;8434;47.990;7.880;2022-09-03T05:16:20;4.10;;;3.70;;
16640;SDS011;8434;47.990;7.880;2022-09-03T05:19:06;4.90;;;3.37;;
16640;SDS011;8434;47.990;7.880;2022-09-03T05:21:51;3.67;;;3.17;;
16640;SDS011;8434;47.990;7.880;2022-09-03T05:24:37;3.33;;;2.70;;
16640;SDS011;8434;47.990;7.880;2022-09-03T05:27:22;6.47;;;3.50;;
16640;SDS011;8434;47.990;7.880;2022-09-03T05:30:07;2.90;;;2.70;;
16640;SDS011;8434;47.990;7.880;2022-09-03T05:32:52;4.03;;;3.37;;
16640;SDS011;8434;47.990;7.880;2022-09-03T05:35:38;5.33;;;3.20;;
16640;SDS011;8434;47.990;7.880;2022-09-03T05:38:23;3.40;;;2.90;;
16640;SDS011;8434;47.990;7.880;2022-09-03T05:41:10;4.50;;;3.23;;
16640;SDS011;8434;47.990;7.880;2022-09-03T05:43:56;3.20;;;3.00;;
16640;SDS011;8434;47.990;7.880;2022-09-03T05:46:41;2.97;;;2.77;;
16640;SDS011;8434;47.990;7.880;2022-09-03T05:49:26;5.93;;;2.77;;
16640;SDS011;8434;47.990;7.880;2022-09-03T05:52:12;4.60;;;3.00;;
16640;SDS011;8434;47.990;7.880;2022-09-03T05:54:58;3.30;;;3.00;;
16640;SDS011;8434;47.990;7.880;2022-09-03T05:57:44;3.87;;;3.00;;
16640;SDS011;8434;47.990;7.880;2022-09-03T06:00:35;3.43;;;2.90;;
16640;SDS011;8434;47.990;7.880;2022-09-03T06:03:20;3.80;;;2.70;;
16640;SDS011;8434;47.990;7.880;2022-09-03T06:06:05;3.10;;;2.80;;
16640;SDS011;8434;47.990;7.880;2022-09-03T06:08:51;4.20;;;3.00;;
16640;SDS011;8434;47.990;7.880;2022-09-03T06:11:37;3.03;;;2.57;;
16640;SDS011;8434;47.990;7.880;2022-09-03T06:14:24;3.43;;;2.60;;
16640;SDS011;8434;47.990;7.880;2022-09-03T06:17:09;3.10;;;2.60;;
16640;SDS011;8434;47.990;7.880;2022-09-03T06:19:55;3.40;;;3.10;;
16640;SDS011;8434;47.990;7.880;2022-09-03T06:22:40;2.83;;;2.63;;
16640;SDS011;8434;47.990;7.880;2022-09-03T06:25:26;2.70;;;2.50;;
16640;SDS011;8434;47.990;7.880;2022-09-03T06:28:11;3.30;;;2.87;;
16640;SDS011;8434;47.990;7.880;2022-09-03T06:30:58;4.43;;;3.20;;
16640;SDS011;8434;47.990;7.880;2022-09-03T06:33:44;2.83;;;2.60;;
16640;SDS011;8434;47.990;7.880;2022-09-03T06:36:30;2.90;;;2.70;;
16640;SDS011;8434;47.990;7.880;2022-09-03T06:39:15;2.73;;;2.53;;
16640;SDS011;8434;47.990;7.880;2022-09-03T06:42:00;3.50;;;2.50;;
16640;SDS011;8434;47.990;7.880;2022-09-03T06:44:45;2.77;;;2.57;;
16640;SDS011;8434;47.990;7.880;2022-09-03T06:47:31;2.47;;;2.28;;
16640;SDS011;8434;47.990;7.880;2022-09-03T06:50:16;3.72;;;2.45;;
16640;SDS011;8434;47.990;7.880;2022-09-03T06:53:02;3.43;;;2.43;;
16640;SDS011;8434;47.990;7.880;2022-09-03T06:55:51;2.47;;;2.28;;
16640;SDS011;8434;47.990;7.880;2022-09-03T06:58:36;2.67;;;2.40;;
16640;SDS011;8434;47.990;7.880;2022-09-03T07:01:25;4.60;;;2.27;;
16640;SDS011;8434;47.990;7.880;2022-09-03T07:04:14;2.80;;;2.60;;
16640;SDS011;8434;47.990;7.880;2022-09-03T07:06:59;5.25;;;2.50;;
16640;SDS011;8434;47.990;7.880;2022-09-03T07:09:45;3.60;;;2.42;;
16640;SDS011;8434;47.990;7.880;2022-09-03T07:12:30;2.20;;;2.03;;
16640;SDS011;8434;47.990;7.880;2022-09-03T07:15:20;2.55;;;2.35;;
16640;SDS011;8434;47.990;7.880;2022-09-03T07:18:05;2.90;;;2.38;;
16640;SDS011;8434;47.990;7.880;2022-09-03T07:20:51;2.58;;;1.90;;
16640;SDS011;8434;47.990;7.880;2022-09-03T07:23:36;2.13;;;1.95;;
16640;SDS011;8434;47.990;7.880;2022-09-03T07:26:22;2.90;;;2.05;;
16640;SDS011;8434;47.990;7.880;2022-09-03T07:29:07;2.13;;;1.92;;
16640;SDS011;8434;47.990;7.880;2022-09-03T07:31:54;4.70;;;2.03;;
16640;SDS011;8434;47.990;7.880;2022-09-03T07:34:39;4.28;;;2.45;;
16640;SDS011;8434;47.990;7.880;2022-09-03T07:37:25;2.67;;;2.13;;
16640;SDS011;8434;47.990;7.880;2022-09-03T07:40:10;2.30;;;1.95;;
16640;SDS011;8434;47.990;7.880;2022-09-03T07:42:56;2.60;;;2.25;;
16640;SDS011;8434;47.990;7.880;2022-09-03T07:45:49;2.20;;;1.45;;
16640;SDS011;8434;47.990;7.880;2022-09-03T07:48:34;1.38;;;1.27;;
16640;SDS011;8434;47.990;7.880;2022-09-03T07:51:20;1.50;;;1.40;;
16640;SDS011;8434;47.990;7.880;2022-09-03T07:54:08;1.88;;;1.58;;
16640;SDS011;8434;47.990;7.880;2022-09-03T07:56:53;1.13;;;1.13;;
16640;SDS011;8434;47.990;7.880;2022-09-03T07:59:39;1.70;;;1.45;;
16640;SDS011;8434;47.990;7.880;2022-09-03T08:02:24;1.73;;;1.63;;
16640;SDS011;8434;47.990;7.880;2022-09-03T08:05:09;1.92;;;1.40;;
16640;SDS011;8434;47.990;7.880;2022-09-03T08:07:54;2.25;;;1.48;;
16640;SDS011;8434;47.990;7.880;2022-09-03T08:10:40;2.17;;;1.48;;
16640;SDS011;8434;47.990;7.880;2022-09-03T08:13:25;1.95;;;1.67;;
16640;SDS011;8434;47.990;7.880;2022-09-03T08:16:11;1.52;;;1.40;;
16640;SDS011;8434;47.990;7.880;2022-09-03T08:18:56;2.38;;;1.58;;
16640;SDS011;8434;47.990;7.880;2022-09-03T08:21:42;1.63;;;1.52;;
16640;SDS011;8434;47.990;7.880;2022-09-03T08:24:27;2.55;;;2.00;;
16640;SDS011;8434;47.990;7.880;2022-09-03T08:27:13;3.20;;;2.05;;
16640;SDS011;8434;47.990;7.880;2022-09-03T08:29:58;1.60;;;1.50;;
16640;SDS011;8434;47.990;7.880;2022-09-03T08:32:43;2.33;;;1.80;;
16640;SDS011;8434;47.990;7.880;2022-09-03T08:35:28;1.80;;;1.70;;
16640;SDS011;8434;47.990;7.880;2022-09-03T08:38:17;1.73;;;1.63;;
16640;SDS011;8434;47.990;7.880;2022-09-03T08:41:05;2.72;;;1.80;;
16640;SDS011;8434;47.990;7.880;2022-09-03T08:43:55;2.67;;;2.08;;
16640;SDS011;8434;47.990;7.880;2022-09-03T08:46:46;2.20;;;1.75;;
16640;SDS011;8434;47.990;7.880;2022-09-03T08:49:34;1.83;;;1.73;;
16640;SDS011;8434;47.990;7.880;2022-09-03T08:52:26;3.63;;;2.03;;
16640;SDS011;8434;47.990;7.880;2022-09-03T08:55:15;3.55;;;1.60;;
16640;SDS011;8434;47.990;7.880;2022-09-03T08:58:01;2.25;;;2.00;;
16640;SDS011;8434;47.990;7.880;2022-09-03T09:00:49;3.45;;;2.38;;
16640;SDS011;8434;47.990;7.880;2022-09-03T09:03:47;5.97;;;2.30;;
16640;SDS011;8434;47.990;7.880;2022-09-03T09:06:35;3.22;;;2.20;;
16640;SDS011;8434;47.990;7.880;2022-09-03T09:09:26;2.97;;;2.20;;
16640;SDS011;8434;47.990;7.880;2022-09-03T09:12:15;2.10;;;1.90;;
16640;SDS011;8434;47.990;7.880;2022-09-03T09:15:07;2.78;;;2.22;;
16640;SDS011;8434;47.990;7.880;2022-09-03T09:18:02;2.42;;;2.22;;
16640;SDS011;8434;47.990;7.880;2022-09-03T09:20:50;3.67;;;2.38;;
16640;SDS011;8434;47.990;7.880;2022-09-03T09:23:38;2.20;;;2.00;;
16640;SDS011;8434;47.990;7.880;2022-09-03T09:26:25;4.50;;;2.13;;
16640;SDS011;8434;47.990;7.880;2022-09-03T09:29:10;4.47;;;2.97;;
16640;SDS011;8434;47.990;7.880;2022-09-03T09:31:55;5.90;;;3.10;;
16640;SDS011;8434;47.990;7.880;2022-09-03T09:34:42;5.93;;;3.30;;
16640;SDS011;8434;47.990;7.880;2022-09-03T09:37:27;6.23;;;4.13;;
16640;SDS011;8434;47.990;7.880;2022-09-03T09:40:21;8.00;;;4.10;;
16640;SDS011;8434;47.990;7.880;2022-09-03T09:43:07;4.43;;;2.80;;
16640;SDS011;8434;47.990;7.880;2022-09-03T09:45:53;2.77;;;2.00;;
16640;SDS011;8434;47.990;7.880;2022-09-03T09:48:38;3.53;;;2.20;;
16640;SDS011;8434;47.990;7.880;2022-09-03T09:51:30;4.53;;;2.30;;
16640;SDS011;8434;47.990;7.880;2022-09-03T09:54:16;3.30;;;2.33;;
16640;SDS011;8434;47.990;7.880;2022-09-03T09:57:03;2.97;;;2.47;;
16640;SDS011;8434;47.990;7.880;2022-09-03T09:59:49;3.27;;;2.80;;
16640;SDS011;8434;47.990;7.880;2022-09-03T10:02:34;2.97;;;2.67;;
16640;SDS011;8434;47.990;7.880;2022-09-03T10:05:21;2.30;;;1.90;;
16640;SDS011;8434;47.990;7.880;2022-09-03T10:08:18;4.60;;;2.40;;
16640;SDS011;8434;47.990;7.880;2022-09-03T10:11:04;4.50;;;2.77;;
16640;SDS011;8434;47.990;7.880;2022-09-03T10:13:50;5.27;;;2.60;;
16640;SDS011;8434;47.990;7.880;2022-09-03T10:16:37;2.60;;;2.33;;
16640;SDS011;8434;47.990;7.880;2022-09-03T10:19:24;2.20;;;2.00;;
16640;SDS011;8434;47.990;7.880;2022-09-03T10:22:17;2.23;;;1.70;;
16640;SDS011;8434;47.990;7.880;2022-09-03T10:25:05;3.33;;;1.70;;
16640;SDS011;8434;47.990;7.880;2022-09-03T10:27:51;1.40;;;1.10;;
16640;SDS011;8434;47.990;7.880;2022-09-03T10:30:44;1.93;;;1.30;;
16640;SDS011;8434;47.990;7.880;2022-09-03T10:33:31;1.30;;;0.97;;
16640;SDS011;8434;47.990;7.880;2022-09-03T10:36:18;1.07;;;0.80;;
16640;SDS011;8434;47.990;7.880;2022-09-03T10:39:08;2.50;;;1.00;;
16640;SDS011;8434;47.990;7.880;2022-09-03T10:42:00;1.03;;;0.93;;
16640;SDS011;8434;47.990;7.880;2022-09-03T10:44:54;1.30;;;0.70;;
16640;SDS011;8434;47.990;7.880;2022-09-03T10:47:47;1.13;;;0.90;;
16640;SDS011;8434;47.990;7.880;2022-09-03T10:50:39;0.50;;;0.50;;
16640;SDS011;8434;47.990;7.880;2022-09-03T10:53:34;2.23;;;0.80;;
16640;SDS011;8434;47.990;7.880;2022-09-03T10:56:24;1.53;;;1.10;;
16640;SDS011;8434;47.990;7.880;2022-09-03T10:59:24;0.80;;;0.80;;
16640;SDS011;8434;47.990;7.880;2022-09-03T11:02:18;0.83;;;0.83;;
16640;SDS011;8434;47.990;7.880;2022-09-03T11:05:05;3.43;;;0.80;;
16640;SDS011;8434;47.990;7.880;2022-09-03T11:07:53;1.17;;;0.70;;
16640;SDS011;8434;47.990;7.880;2022-09-03T11:10:42;0.80;;;0.80;;
16640;SDS011;8434;47.990;7.880;2022-09-03T11:13:30;0.70;;;0.70;;
16640;SDS011;8434;47.990;7.880;2022-09-03T11:16:21;1.60;;;1.00;;
16640;SDS011;8434;47.990;7.880;2022-09-03T11:19:10;1.10;;;0.90;;
16640;SDS011;8434;47.990;7.880;2022-09-03T11:21:58;1.13;;;0.80;;
16640;SDS011;8434;47.990;7.880;2022-09-03T11:24:44;2.47;;;0.80;;
16640;SDS011;8434;47.990;7.880;2022-09-03T11:27:31;1.50;;;0.90;;
16640;SDS011;8434;47.990;7.880;2022-09-03T11:30:21;1.10;;;1.00;;
16640;SDS011;8434;47.990;7.880;2022-09-03T11:33:09;1.90;;;1.50;;
16640;SDS011;8434;47.990;7.880;2022-09-03T11:35:55;3.47;;;1.30;;
16640;SDS011;8434;47.990;7.880;2022-09-03T11:38:41;1.67;;;1.10;;
16640;SDS011;8434;47.990;7.880;2022-09-03T11:41:27;0.68;;;0.68;;
16640;SDS011;8434;47.990;7.880;2022-09-03T11:44:16;1.80;;;0.70;;
16640;SDS011;8434;47.990;7.880;2022-09-03T11:47:11;0.50;;;0.50;;
16640;SDS011;8434;47.990;7.880;2022-09-03T11:50:05;0.80;;;0.80;;
16640;SDS011;8434;47.990;7.880;2022-09-03T11:52:51;0.60;;;0.60;;
16640;SDS011;8434;47.990;7.880;2022-09-03T11:55:47;0.50;;;0.50;;
16640;SDS011;8434;47.990;7.880;2022-09-03T11:58:34;1.48;;;0.50;;
16640;SDS011;8434;47.990;7.880;2022-09-03T12:01:20;1.02;;;0.50;;
16640;SDS011;8434;47.990;7.880;2022-09-03T12:04:07;0.80;;;0.75;;
16640;SDS011;8434;47.990;7.880;2022-09-03T12:06:56;1.17;;;0.75;;
16640;SDS011;8434;47.990;7.880;2022-09-03T12:09:59;1.00;;;0.70;;
16640;SDS011;8434;47.990;7.880;2022-09-03T12:16:04;1.00;;;0.70;;
16640;SDS011;8434;47.990;7.880;2022-09-03T12:18:55;0.65;;;0.60;;
16640;SDS011;8434;47.990;7.880;2022-09-03T12:21:46;0.70;;;0.60;;
16640;SDS011;8434;47.990;7.880;2022-09-03T12:24:33;0.70;;;0.70;;
16640;SDS011;8434;47.990;7.880;2022-09-03T12:27:20;1.27;;;0.70;;
16640;SDS011;8434;47.990;7.880;2022-09-03T12:30:13;0.75;;;0.70;;
16640;SDS011;8434;47.990;7.880;2022-09-03T12:33:02;1.30;;;0.80;;
16640;SDS011;8434;47.990;7.880;2022-09-03T12:35:55;1.92;;;0.70;;
16640;SDS011;8434;47.990;7.880;2022-09-03T12:38:40;1.30;;;0.77;;
16640;SDS011;8434;47.990;7.880;2022-09-03T12:41:28;1.08;;;0.80;;
16640;SDS011;8434;47.990;7.880;2022-09-03T12:44:14;0.82;;;0.70;;
16640;SDS011;8434;47.990;7.880;2022-09-03T12:46:59;1.00;;;0.65;;
16640;SDS011;8434;47.990;7.880;2022-09-03T12:49:45;5.03;;;1.98;;
16640;SDS011;8434;47.990;7.880;2022-09-03T12:52:31;1.60;;;0.90;;
16640;SDS011;8434;47.990;7.880;2022-09-03T12:55:27;0.98;;;0.70;;
16640;SDS011;8434;47.990;7.880;2022-09-03T12:58:15;1.95;;;0.80;;
16640;SDS011;8434;47.990;7.880;2022-09-03T13:01:04;1.95;;;0.70;;
16640;SDS011;8434;47.990;7.880;2022-09-03T13:03:52;1.17;;;0.73;;
16640;SDS011;8434;47.990;7.880;2022-09-03T13:06:44;0.70;;;0.70;;
16640;SDS011;8434;47.990;7.880;2022-09-03T13:09:33;0.60;;;0.60;;
16640;SDS011;8434;47.990;7.880;2022-09-03T13:12:22;0.82;;;0.60;;
16640;SDS011;8434;47.990;7.880;2022-09-03T13:15:10;1.60;;;1.27;;
16640;SDS011;8434;47.990;7.880;2022-09-03T13:18:09;0.60;;;0.60;;
16640;SDS011;8434;47.990;7.880;2022-09-03T13:21:06;0.95;;;0.70;;
16640;SDS011;8434;47.990;7.880;2022-09-03T13:23:57;1.10;;;0.70;;
16640;SDS011;8434;47.990;7.880;2022-09-03T13:26:47;0.80;;;0.60;;
16640;SDS011;8434;47.990;7.880;2022-09-03T13:29:38;0.52;;;0.50;;
16640;SDS011;8434;47.990;7.880;2022-09-03T13:32:29;0.50;;;0.50;;
16640;SDS011;8434;47.990;7.880;2022-09-03T13:35:26;0.47;;;0.47;;
16640;SDS011;8434;47.990;7.880;2022-09-03T13:38:13;0.60;;;0.60;;
16640;SDS011;8434;47.990;7.880;2022-09-03T13:41:06;0.73;;;0.50;;
16640;SDS011;8434;47.990;7.880;2022-09-03T13:44:03;0.45;;;0.45;;
16640;SDS011;8434;47.990;7.880;2022-09-03T13:46:51;0.85;;;0.60;;
16640;SDS011;8434;47.990;7.880;2022-09-03T13:49:39;0.73;;;0.73;;
16640;SDS011;8434;47.990;7.880;2022-09-03T13:52:45;2.15;;;0.57;;
16640;SDS011;8434;47.990;7.880;2022-09-03T13:55:34;1.20;;;0.50;;
16640;SDS011;8434;47.990;7.880;2022-09-03T13:58:23;2.33;;;0.60;;
16640;SDS011;8434;47.990;7.880;2022-09-03T14:01:11;0.43;;;0.43;;
16640;SDS011;8434;47.990;7.880;2022-09-03T14:03:59;0.73;;;0.60;;
16640;SDS011;8434;47.990;7.880;2022-09-03T14:06:48;0.75;;;0.75;;
16640;SDS011;8434;47.990;7.880;2022-09-03T14:09:40;0.70;;;0.70;;
16640;SDS011;8434;47.990;7.880;2022-09-03T14:12:33;1.25;;;0.50;;
16640;SDS011;8434;47.990;7.880;2022-09-03T14:15:21;0.82;;;0.80;;
16640;SDS011;8434;47.990;7.880;2022-09-03T14:18:09;0.77;;;0.65;;
16640;SDS011;8434;47.990;7.880;2022-09-03T14:20:58;1.67;;;0.60;;
16640;SDS011;8434;47.990;7.880;2022-09-03T14:23:48;0.88;;;0.60;;
16640;SDS011;8434;47.990;7.880;2022-09-03T14:26:35;0.60;;;0.60;;
16640;SDS011;8434;47.990;7.880;2022-09-03T14:29:22;0.93;;;0.60;;
16640;SDS011;8434;47.990;7.880;2022-09-03T14:32:12;0.50;;;0.50;;
16640;SDS011;8434;47.990;7.880;2022-09-03T14:35:05;0.70;;;0.70;;
16640;SDS011;8434;47.990;7.880;2022-09-03T14:41:00;1.05;;;0.90;;
16640;SDS011;8434;47.990;7.880;2022-09-03T14:46:56;2.85;;;0.93;;
16640;SDS011;8434;47.990;7.880;2022-09-03T14:52:56;0.82;;;0.82;;
16640;SDS011;8434;47.990;7.880;2022-09-03T14:55:48;2.35;;;1.08;;
16640;SDS011;8434;47.990;7.880;2022-09-03T14:58:45;1.30;;;1.20;;
16640;SDS011;8434;47.990;7.880;2022-09-03T15:01:34;1.60;;;1.00;;
16640;SDS011;8434;47.990;7.880;2022-09-03T15:04:31;1.38;;;1.02;;
16640;SDS011;8434;47.990;7.880;2022-09-03T15:07:24;1.88;;;1.10;;
16640;SDS011;8434;47.990;7.880;2022-09-03T15:10:15;1.30;;;1.20;;
16640;SDS011;8434;47.990;7.880;2022-09-03T15:13:07;1.40;;;1.30;;
16640;SDS011;8434;47.990;7.880;2022-09-03T15:16:04;1.75;;;1.25;;
16640;SDS011;8434;47.990;7.880;2022-09-03T15:18:56;1.33;;;1.20;;
16640;SDS011;8434;47.990;7.880;2022-09-03T15:21:48;1.55;;;1.33;;
16640;SDS011;8434;47.990;7.880;2022-09-03T15:24:42;1.30;;;1.20;;
16640;SDS011;8434;47.990;7.880;2022-09-03T15:27:43;1.30;;;1.20;;
16640;SDS011;8434;47.990;7.880;2022-09-03T15:30:32;3.85;;;1.65;;
16640;SDS011;8434;47.990;7.880;2022-09-03T15:33:21;2.38;;;2.17;;
16640;SDS011;8434;47.990;7.880;2022-09-03T15:36:10;2.47;;;1.50;;
16640;SDS011;8434;47.990;7.880;2022-09-03T15:38:59;1.85;;;1.30;;
16640;SDS011;8434;47.990;7.880;2022-09-03T15:41:45;3.08;;;1.55;;
16640;SDS011;8434;47.990;7.880;2022-09-03T15:44:40;2.38;;;1.10;;
16640;SDS011;8434;47.990;7.880;2022-09-03T15:47:31;1.52;;;1.35;;
16640;SDS011;8434;47.990;7.880;2022-09-03T15:50:30;1.77;;;1.38;;
16640;SDS011;8434;47.990;7.880;2022-09-03T15:53:18;1.52;;;1.42;;
16640;SDS011;8434;47.990;7.880;2022-09-03T15:56:13;4.43;;;2.00;;
16640;SDS011;8434;47.990;7.880;2022-09-03T15:59:00;2.13;;;1.92;;
16640;SDS011;8434;47.990;7.880;2022-09-03T16:01:48;1.10;;;1.00;;
16640;SDS011;8434;47.990;7.880;2022-09-03T16:04:41;1.77;;;1.40;;
16640;SDS011;8434;47.990;7.880;2022-09-03T16:07:29;1.42;;;1.25;;
16640;SDS011;8434;47.990;7.880;2022-09-03T16:10:18;1.30;;;1.05;;
16640;SDS011;8434;47.990;7.880;2022-09-03T16:13:04;1.20;;;1.05;;
16640;SDS011;8434;47.990;7.880;2022-09-03T16:15:56;2.00;;;1.38;;
16640;SDS011;8434;47.990;7.880;2022-09-03T16:18:43;1.40;;;1.30;;
16640;SDS011;8434;47.990;7.880;2022-09-03T16:21:31;1.80;;;1.40;;
16640;SDS011;8434;47.990;7.880;2022-09-03T16:24:21;1.67;;;1.58;;
16640;SDS011;8434;47.990;7.880;2022-09-03T16:27:09;2.38;;;1.85;;
16640;SDS011;8434;47.990;7.880;2022-09-03T16:29:56;1.52;;;1.30;;
16640;SDS011;8434;47.990;7.880;2022-09-03T16:32:48;2.20;;;1.45;;
16640;SDS011;8434;47.990;7.880;2022-09-03T16:35:40;1.45;;;1.35;;
16640;SDS011;8434;47.990;7.880;2022-09-03T16:38:30;1.52;;;1.10;;
16640;SDS011;8434;47.990;7.880;2022-09-03T16:41:20;2.75;;;1.35;;
16640;SDS011;8434;47.990;7.880;2022-09-03T16:44:10;8.30;;;2.35;;
16640;SDS011;8434;47.990;7.880;2022-09-03T16:47:01;1.80;;;1.30;;
16640;SDS011;8434;47.990;7.880;2022-09-03T16:49:51;1.67;;;1.58;;
16640;SDS011;8434;47.990;7.880;2022-09-03T16:52:41;2.55;;;1.70;;
16640;SDS011;8434;47.990;7.880;2022-09-03T16:55:32;2.88;;;1.85;;
16640;SDS011;8434;47.990;7.880;2022-09-03T16:58:21;1.60;;;1.40;;
16640;SDS011;8434;47.990;7.880;2022-09-03T17:01:12;2.85;;;1.50;;
16640;SDS011;8434;47.990;7.880;2022-09-03T17:04:11;1.55;;;1.45;;
16640;SDS011;8434;47.990;7.880;2022-09-03T17:07:07;1.60;;;1.50;;
16640;SDS011;8434;47.990;7.880;2022-09-03T17:09:57;1.35;;;1.23;;
16640;SDS011;8434;47.990;7.880;2022-09-03T17:12:44;3.08;;;1.55;;
16640;SDS011;8434;47.990;7.880;2022-09-03T17:15:34;1.30;;;1.20;;
16640;SDS011;8434;47.990;7.880;2022-09-03T17:18:25;2.38;;;1.40;;
16640;SDS011;8434;47.990;7.880;2022-09-03T17:21:17;1.38;;;1.20;;